createdAt,value
2017-03-17T06:13:51.555Z,1007.67
2017-03-17T06:14:51.577Z,1007.7
2017-03-17T06:15:51.606Z,1007.69
2017-03-17T06:16:51.633Z,1007.7
2017-03-17T06:17:51.657Z,1007.64
2017-03-17T06:18:51.684Z,1007.57
2017-03-17T06:19:51.712Z,1007.65
2017-03-17T06:20:51.742Z,1007.62
2017-03-17T06:21:51.767Z,1007.65
2017-03-17T06:22:51.798Z,1007.67
2017-03-17T06:23:51.818Z,1007.66
2017-03-17T06:24:51.848Z,1007.62
2017-03-17T06:25:51.884Z,1007.61
2017-03-17T06:26:51.907Z,1007.58
2017-03-17T06:27:51.938Z,1007.56
2017-03-17T06:28:51.965Z,1007.62
2017-03-17T06:29:51.995Z,1007.63
2017-03-17T06:30:52.021Z,1007.65
2017-03-17T06:31:52.048Z,1007.69
2017-03-17T06:32:52.080Z,1007.67
2017-03-17T06:33:52.106Z,1007.69
2017-03-17T06:34:52.136Z,1007.65
2017-03-17T06:35:52.160Z,1007.68
2017-03-17T06:36:52.196Z,1007.71
2017-03-17T06:37:52.227Z,1007.7
2017-03-17T06:38:52.250Z,1007.69
2017-03-17T06:39:52.276Z,1007.77
2017-03-17T06:40:52.303Z,1007.75
2017-03-17T06:41:52.331Z,1007.78
2017-03-17T06:42:52.362Z,1007.83
2017-03-17T06:43:52.386Z,1007.82
2017-03-17T06:44:52.420Z,1007.81
2017-03-17T06:45:52.445Z,1007.82
2017-03-17T06:46:52.472Z,1007.8
2017-03-17T06:47:52.501Z,1007.8
2017-03-17T06:48:52.531Z,1007.79
2017-03-17T06:49:52.543Z,1007.78
2017-03-17T06:50:52.586Z,1007.77
2017-03-17T06:51:52.617Z,1007.84
2017-03-17T06:52:52.647Z,1007.81
2017-03-17T06:53:52.674Z,1007.81
2017-03-17T06:54:52.700Z,1007.82
2017-03-17T06:55:52.733Z,1007.87
2017-03-17T06:56:52.765Z,1007.85
2017-03-17T06:57:52.787Z,1007.87
2017-03-17T06:58:52.818Z,1007.8
2017-03-17T06:59:52.849Z,1007.86
2017-03-17T07:00:52.873Z,1007.78
2017-03-17T07:01:52.903Z,1007.84
2017-03-17T07:02:52.939Z,1007.82
2017-03-17T07:03:52.963Z,1007.85
2017-03-17T07:04:52.991Z,1007.81
2017-03-17T07:05:53.007Z,1007.78
2017-03-17T07:06:53.049Z,1007.82
2017-03-17T07:07:53.077Z,1007.82
2017-03-17T07:08:53.104Z,1007.76
2017-03-17T07:09:53.132Z,1007.83
2017-03-17T07:10:53.162Z,1007.81
2017-03-17T07:11:53.191Z,1007.83
2017-03-17T07:12:53.221Z,1007.82
2017-03-17T07:13:53.249Z,1007.82
2017-03-17T07:14:53.279Z,1007.89
2017-03-17T07:15:53.304Z,1007.86
2017-03-17T07:16:53.339Z,1007.82
2017-03-17T07:17:53.368Z,1007.89
2017-03-17T07:18:53.392Z,1007.88
2017-03-17T07:19:53.421Z,1007.86
2017-03-17T07:20:53.452Z,1007.8
2017-03-17T07:21:53.479Z,1007.75
2017-03-17T07:22:53.519Z,1007.81
2017-03-17T07:23:53.537Z,1007.8
2017-03-17T07:24:53.570Z,1007.84
2017-03-17T07:25:53.596Z,1007.81
2017-03-17T07:26:53.626Z,1007.81
2017-03-17T07:27:53.652Z,1007.83
2017-03-17T07:28:53.683Z,1007.85
2017-03-17T07:29:53.711Z,1007.77
2017-03-17T07:30:54.089Z,1007.81
2017-03-17T07:31:53.766Z,1007.85
2017-03-17T07:32:53.796Z,1007.7
2017-03-17T07:33:53.824Z,1007.77
2017-03-17T07:34:53.846Z,1007.69
2017-03-17T07:35:53.886Z,1007.69
2017-03-17T07:36:53.913Z,1007.66
2017-03-17T07:37:53.942Z,1007.62
2017-03-17T07:38:53.973Z,1007.7
2017-03-17T07:39:53.999Z,1007.62
2017-03-17T07:40:54.028Z,1007.64
2017-03-17T07:41:54.056Z,1007.66
2017-03-17T07:42:54.091Z,1007.6
2017-03-17T07:43:54.118Z,1007.61
2017-03-17T07:44:54.147Z,1007.62
2017-03-17T07:45:54.177Z,1007.61
2017-03-17T07:46:54.202Z,1007.7
2017-03-17T07:47:54.233Z,1007.69
2017-03-17T07:48:54.263Z,1007.71
2017-03-17T07:49:54.292Z,1007.74
2017-03-17T07:50:54.319Z,1007.73
2017-03-17T07:51:54.349Z,1007.64
2017-03-17T07:52:54.380Z,1007.57
2017-03-17T07:53:54.409Z,1007.62
2017-03-17T07:54:54.438Z,1007.6
2017-03-17T07:55:54.465Z,1007.55
2017-03-17T07:56:54.494Z,1007.56
2017-03-17T07:57:54.524Z,1007.65
2017-03-17T07:58:54.554Z,1007.62
2017-03-17T07:59:54.585Z,1007.63
2017-03-17T08:00:54.612Z,1007.63
2017-03-17T08:01:54.646Z,1007.63
2017-03-17T08:02:54.675Z,1007.62
2017-03-17T08:03:54.708Z,1007.6
2017-03-17T08:04:54.737Z,1007.54
2017-03-17T08:05:54.767Z,1007.55
2017-03-17T08:06:54.794Z,1007.65
2017-03-17T08:07:54.825Z,1007.69
2017-03-17T08:08:54.853Z,1007.67
2017-03-17T08:09:54.881Z,1007.58
2017-03-17T08:10:54.911Z,1007.59
2017-03-17T08:11:54.944Z,1007.51
2017-03-17T08:12:54.977Z,1007.57
2017-03-17T08:13:55.005Z,1007.55
2017-03-17T08:14:55.036Z,1007.59
2017-03-17T08:15:55.068Z,1007.53
2017-03-17T08:16:55.094Z,1007.54
2017-03-17T08:17:55.122Z,1007.55
2017-03-17T08:18:55.150Z,1007.67
2017-03-17T08:19:55.184Z,1007.66
2017-03-17T08:20:55.213Z,1007.7
2017-03-17T08:21:55.246Z,1007.68
2017-03-17T08:22:55.274Z,1007.73
2017-03-17T08:23:55.308Z,1007.64
2017-03-17T08:24:55.337Z,1007.65
2017-03-17T08:25:55.369Z,1007.68
2017-03-17T08:26:55.397Z,1007.58
2017-03-17T08:27:55.437Z,1007.57
2017-03-17T08:28:55.447Z,1007.63
2017-03-17T08:29:55.489Z,1007.67
2017-03-17T08:30:55.523Z,1007.63
2017-03-17T08:31:55.549Z,1007.6
2017-03-17T08:32:55.582Z,1007.57
2017-03-17T08:33:55.619Z,1007.58
2017-03-17T08:34:55.645Z,1007.65
2017-03-17T08:35:55.674Z,1007.66
2017-03-17T08:36:55.709Z,1007.67
2017-03-17T08:37:55.742Z,1007.79
2017-03-17T08:38:55.759Z,1008.15
2017-03-17T08:39:55.805Z,1008.25
2017-03-17T08:40:55.836Z,1008.05
2017-03-17T08:41:55.866Z,1008
2017-03-17T08:42:55.901Z,1007.88
2017-03-17T08:43:55.931Z,1007.86
2017-03-17T08:44:55.965Z,1007.87
2017-03-17T08:45:55.998Z,1007.81
2017-03-17T08:46:56.033Z,1007.82
2017-03-17T08:47:56.063Z,1007.96
2017-03-17T08:48:56.101Z,1007.97
2017-03-17T08:49:56.127Z,1008.02
2017-03-17T08:50:56.176Z,1008.15
2017-03-17T08:51:56.199Z,1008.23
2017-03-17T08:52:56.238Z,1008.14
2017-03-17T08:53:56.255Z,1008.26
2017-03-17T08:54:56.307Z,1008.13
2017-03-17T08:55:56.344Z,1008.05
2017-03-17T08:56:56.379Z,1008.06
2017-03-17T08:57:56.415Z,1008
2017-03-17T08:58:56.449Z,1008.01
2017-03-17T08:59:56.483Z,1008
2017-03-17T09:00:56.520Z,1008.05
2017-03-17T09:01:56.558Z,1008.06
2017-03-17T09:02:56.594Z,1007.96
2017-03-17T09:03:56.632Z,1007.93
2017-03-17T09:04:56.659Z,1007.96
2017-03-17T09:05:56.702Z,1008.02
2017-03-17T09:06:56.743Z,1008.01
2017-03-17T09:07:56.778Z,1008.12
2017-03-17T09:08:56.818Z,1008.13
2017-03-17T09:09:56.853Z,1008.17
2017-03-17T09:10:56.890Z,1008.22
2017-03-17T09:11:56.930Z,1008.27
2017-03-17T09:12:56.963Z,1008.13
2017-03-17T09:13:57.002Z,1008
2017-03-17T09:14:57.039Z,1007.85
2017-03-17T09:15:57.077Z,1007.9
2017-03-17T09:16:57.116Z,1008
2017-03-17T09:17:57.158Z,1008.15
2017-03-17T09:18:57.192Z,1008.02
2017-03-17T09:19:57.231Z,1008
2017-03-17T09:20:57.267Z,1007.94
2017-03-17T09:21:57.303Z,1007.98
2017-03-17T09:22:57.342Z,1007.95
2017-03-17T09:23:57.380Z,1007.95
2017-03-17T09:24:57.415Z,1008.02
2017-03-17T09:25:57.455Z,1007.98
2017-03-17T09:26:57.491Z,1008.04
2017-03-17T09:27:57.533Z,1007.96
2017-03-17T09:28:57.566Z,1008.02
2017-03-17T09:29:57.598Z,1008.05
2017-03-17T09:30:57.636Z,1007.99
2017-03-17T09:31:57.671Z,1008.08
2017-03-17T09:32:57.707Z,1008.11
2017-03-17T09:33:57.743Z,1008.13
2017-03-17T09:34:57.776Z,1008.06
2017-03-17T09:35:57.811Z,1008.15
2017-03-17T09:36:57.846Z,1008.19
2017-03-17T09:37:57.881Z,1008.17
2017-03-17T09:38:57.916Z,1008.11
2017-03-17T09:39:57.954Z,1008.12
2017-03-17T09:40:57.989Z,1008.14
2017-03-17T09:41:58.019Z,1008.11
2017-03-17T09:42:58.042Z,1008.03
2017-03-17T09:43:58.089Z,1008.11
2017-03-17T09:44:58.122Z,1008.1
2017-03-17T09:45:58.156Z,1008.12
2017-03-17T09:46:58.188Z,1008.11
2017-03-17T09:47:58.221Z,1008.19
2017-03-17T09:48:58.256Z,1008.15
2017-03-17T09:49:58.289Z,1008.07
2017-03-17T09:50:58.325Z,1008.07
2017-03-17T09:51:58.355Z,1008.04
2017-03-17T09:52:58.389Z,1008.09
2017-03-17T09:53:58.422Z,1008.03
2017-03-17T09:54:58.460Z,1007.95
2017-03-17T09:55:58.478Z,1008
2017-03-17T09:56:58.524Z,1008.03
2017-03-17T09:57:58.560Z,1008.07
2017-03-17T09:58:58.597Z,1008.08
2017-03-17T09:59:58.624Z,1008.02
2017-03-17T10:00:58.660Z,1007.96
2017-03-17T10:01:58.695Z,1008.06
2017-03-17T10:02:58.729Z,1007.98
2017-03-17T10:03:58.762Z,1008
2017-03-17T10:04:58.799Z,1007.99
2017-03-17T10:05:58.829Z,1008.02
2017-03-17T10:06:58.858Z,1008.05
2017-03-17T10:07:58.881Z,1008.02
2017-03-17T10:08:58.926Z,1008.1
2017-03-17T10:09:58.964Z,1008.09
2017-03-17T10:10:58.995Z,1008.07
2017-03-17T10:11:59.027Z,1008.1
2017-03-17T10:12:59.058Z,1008.07
2017-03-17T10:13:59.093Z,1008.07
2017-03-17T10:14:59.126Z,1008.09
2017-03-17T10:15:59.159Z,1008.05
2017-03-17T10:16:59.188Z,1008
2017-03-17T10:17:59.222Z,1007.99
2017-03-17T10:18:59.254Z,1008.01
2017-03-17T10:19:59.289Z,1008
2017-03-17T10:20:59.320Z,1007.97
2017-03-17T10:21:59.352Z,1007.99
2017-03-17T10:22:59.385Z,1007.95
2017-03-17T10:23:59.417Z,1007.91
2017-03-17T10:24:59.449Z,1007.94
2017-03-17T10:25:59.479Z,1007.93
2017-03-17T10:26:59.513Z,1007.91
2017-03-17T10:27:59.531Z,1007.94
2017-03-17T10:28:59.574Z,1007.93
2017-03-17T10:29:59.609Z,1007.94
2017-03-17T10:30:59.629Z,1007.92
2017-03-17T10:31:59.670Z,1007.94
2017-03-17T10:32:59.702Z,1007.89
2017-03-17T10:33:59.734Z,1007.94
2017-03-17T10:34:59.763Z,1007.88
2017-03-17T10:35:59.807Z,1007.96
2017-03-17T10:36:59.827Z,1007.89
2017-03-17T10:37:59.857Z,1007.83
2017-03-17T10:38:59.895Z,1007.84
2017-03-17T10:39:59.920Z,1007.93
2017-03-17T10:40:59.951Z,1007.88
2017-03-17T10:41:59.969Z,1007.84
2017-03-17T10:43:00.017Z,1007.86
2017-03-17T10:44:00.043Z,1007.91
2017-03-17T10:45:00.072Z,1007.92
2017-03-17T10:46:00.105Z,1007.92
2017-03-17T10:47:00.140Z,1007.91
2017-03-17T10:48:00.171Z,1007.88
2017-03-17T10:49:00.198Z,1007.88
2017-03-17T10:50:00.231Z,1007.92
2017-03-17T10:51:00.263Z,1007.92
2017-03-17T10:52:00.290Z,1007.96
2017-03-17T10:53:00.321Z,1007.94
2017-03-17T10:54:00.359Z,1007.93
2017-03-17T10:55:00.388Z,1007.83
2017-03-17T10:56:00.416Z,1007.85
2017-03-17T10:57:00.449Z,1007.92
2017-03-17T10:58:00.468Z,1007.92
2017-03-17T10:59:00.503Z,1007.88
2017-03-17T11:00:00.539Z,1007.91
2017-03-17T11:01:00.574Z,1007.84
2017-03-17T11:02:00.597Z,1007.94
2017-03-17T11:03:00.627Z,1007.87
2017-03-17T11:04:00.661Z,1007.93
2017-03-17T11:05:00.690Z,1007.94
2017-03-17T11:06:00.720Z,1007.98
2017-03-17T11:07:00.750Z,1007.93
2017-03-17T11:08:00.780Z,1007.94
2017-03-17T11:09:00.816Z,1007.89
2017-03-17T11:10:00.879Z,1007.84
2017-03-17T11:11:00.871Z,1007.88
2017-03-17T11:12:00.904Z,1007.87
2017-03-17T11:13:00.934Z,1007.91
2017-03-17T11:14:00.967Z,1007.88
2017-03-17T11:15:00.993Z,1007.89
2017-03-17T11:16:01.023Z,1007.86
2017-03-17T11:17:01.058Z,1007.95
2017-03-17T11:18:01.084Z,1007.92
2017-03-17T11:19:01.114Z,1007.9
2017-03-17T11:20:01.147Z,1007.87
2017-03-17T11:21:01.176Z,1007.87
2017-03-17T11:22:01.208Z,1007.83
2017-03-17T11:23:01.239Z,1007.84
2017-03-17T11:24:01.267Z,1007.81
2017-03-17T11:25:01.295Z,1007.86
2017-03-17T11:26:01.328Z,1007.77
2017-03-17T11:27:01.360Z,1007.79
2017-03-17T11:28:01.392Z,1007.78
2017-03-17T11:29:01.413Z,1007.78
2017-03-17T11:30:01.453Z,1007.75
2017-03-17T11:31:01.471Z,1007.73
2017-03-17T11:32:01.509Z,1007.65
2017-03-17T11:33:01.543Z,1007.67
2017-03-17T11:34:01.572Z,1007.69
2017-03-17T11:35:01.602Z,1007.71
2017-03-17T11:36:01.633Z,1007.7
2017-03-17T11:37:01.666Z,1007.67
2017-03-17T11:38:01.694Z,1007.69
2017-03-17T11:39:01.727Z,1007.68
2017-03-17T11:40:01.754Z,1007.61
2017-03-17T11:41:01.785Z,1007.6
2017-03-17T11:42:01.815Z,1007.65
2017-03-17T11:43:01.848Z,1007.64
2017-03-17T11:44:01.881Z,1007.62
2017-03-17T11:45:01.911Z,1007.66
2017-03-17T11:46:01.938Z,1007.65
2017-03-17T11:47:01.971Z,1007.61
2017-03-17T11:48:02.000Z,1007.68
2017-03-17T11:49:02.037Z,1007.66
2017-03-17T11:50:02.066Z,1007.7
2017-03-17T11:51:02.100Z,1007.69
2017-03-17T11:52:02.127Z,1007.73
2017-03-17T11:53:02.162Z,1007.68
2017-03-17T11:54:02.187Z,1007.68
2017-03-17T11:55:02.220Z,1007.64
2017-03-17T11:56:02.251Z,1007.64
2017-03-17T11:57:02.282Z,1007.72
2017-03-17T11:58:02.316Z,1007.75
2017-03-17T11:59:02.343Z,1007.78
2017-03-17T12:00:02.381Z,1007.78
2017-03-17T12:01:02.408Z,1007.72
2017-03-17T12:02:02.431Z,1007.74
2017-03-17T12:03:02.472Z,1007.71
2017-03-17T12:04:02.502Z,1007.62
2017-03-17T12:05:02.534Z,1007.68
2017-03-17T12:06:02.568Z,1007.62
2017-03-17T12:07:02.595Z,1007.65
2017-03-17T12:08:02.628Z,1007.62
2017-03-17T12:09:02.652Z,1007.55
2017-03-17T12:10:02.695Z,1007.6
2017-03-17T12:11:02.724Z,1007.59
2017-03-17T12:12:02.754Z,1007.58
2017-03-17T12:13:02.776Z,1007.58
2017-03-17T12:14:02.821Z,1007.54
2017-03-17T12:15:02.850Z,1007.52
2017-03-17T12:16:02.881Z,1007.59
2017-03-17T12:17:02.915Z,1007.52
2017-03-17T12:18:02.935Z,1007.51
2017-03-17T12:19:02.979Z,1007.51
2017-03-17T12:20:03.011Z,1007.52
2017-03-17T12:21:03.045Z,1007.57
2017-03-17T12:22:03.078Z,1007.56
2017-03-17T12:23:03.109Z,1007.54
2017-03-17T12:24:03.143Z,1007.52
2017-03-17T12:25:03.173Z,1007.53
2017-03-17T12:26:03.207Z,1007.62
2017-03-17T12:27:03.239Z,1007.54
2017-03-17T12:28:03.285Z,1007.5
2017-03-17T12:29:03.320Z,1007.49
2017-03-17T12:30:03.333Z,1007.37
2017-03-17T12:31:03.368Z,1007.39
2017-03-17T12:32:03.397Z,1007.38
2017-03-17T12:33:03.424Z,1007.34
2017-03-17T12:34:03.494Z,1007.25
2017-03-17T12:35:03.505Z,1007.25
2017-03-17T12:36:03.543Z,1007.26
2017-03-17T12:37:03.558Z,1007.26
2017-03-17T12:38:03.594Z,1007.29
2017-03-17T12:39:03.623Z,1007.3
2017-03-17T12:40:03.649Z,1007.3
2017-03-17T12:41:03.691Z,1007.33
2017-03-17T12:42:03.749Z,1007.32
2017-03-17T12:43:03.754Z,1007.37
2017-03-17T12:44:03.789Z,1007.4
2017-03-17T12:45:03.839Z,1007.3
2017-03-17T12:46:03.854Z,1007.31
2017-03-17T12:47:03.886Z,1007.29
2017-03-17T12:48:03.918Z,1007.27
2017-03-17T12:49:03.950Z,1007.23
2017-03-17T12:50:04.002Z,1007.26
2017-03-17T12:51:04.015Z,1007.23
2017-03-17T12:52:04.049Z,1007.25
2017-03-17T12:53:04.080Z,1007.3
2017-03-17T12:54:04.114Z,1007.26
2017-03-17T12:55:04.157Z,1007.34
2017-03-17T12:56:04.178Z,1007.24
2017-03-17T12:57:04.214Z,1007.27
2017-03-17T12:58:04.245Z,1007.25
2017-03-17T12:59:04.275Z,1007.2
2017-03-17T13:00:04.318Z,1007.18
2017-03-17T13:01:04.341Z,1007.2
2017-03-17T13:02:04.375Z,1007.22
2017-03-17T13:03:04.398Z,1007.24
2017-03-17T13:04:04.464Z,1007.35
2017-03-17T13:05:04.470Z,1007.13
2017-03-17T13:06:04.504Z,1007.18
2017-03-17T13:07:04.535Z,1007.19
2017-03-17T13:08:04.563Z,1007.25
2017-03-17T13:09:04.601Z,1007.24
2017-03-17T13:10:04.632Z,1007.29
2017-03-17T13:11:04.665Z,1007.26
2017-03-17T13:12:04.696Z,1007.29
2017-03-17T13:13:04.733Z,1007.25
2017-03-17T13:14:04.763Z,1007.23
2017-03-17T13:15:04.780Z,1007.22
2017-03-17T13:16:04.824Z,1007.21
2017-03-17T13:17:04.858Z,1007.27
2017-03-17T13:18:04.894Z,1007.29
2017-03-17T13:19:04.923Z,1007.3
2017-03-17T13:20:04.954Z,1007.28
2017-03-17T13:21:04.986Z,1007.24
2017-03-17T13:22:05.023Z,1007.18
2017-03-17T13:23:05.054Z,1007.21
2017-03-17T13:24:05.081Z,1007.17
2017-03-17T13:25:05.119Z,1007.22
2017-03-17T13:26:05.150Z,1007.18
2017-03-17T13:27:05.181Z,1007.2
2017-03-17T13:28:05.214Z,1007.17
2017-03-17T13:29:05.245Z,1007.17
2017-03-17T13:30:05.280Z,1007.12
2017-03-17T13:31:05.311Z,1007.11
2017-03-17T13:32:05.344Z,1007.13
2017-03-17T13:33:05.378Z,1007.1
2017-03-17T13:34:05.408Z,1007.12
2017-03-17T13:35:05.443Z,1007.06
2017-03-17T13:36:05.475Z,1007.16
2017-03-17T13:37:05.505Z,1007.13
2017-03-17T13:38:05.539Z,1007.08
2017-03-17T13:39:05.553Z,1007.12
2017-03-17T13:40:05.587Z,1007.07
2017-03-17T13:41:05.633Z,1007.01
2017-03-17T13:42:05.666Z,1007.04
2017-03-17T13:43:05.688Z,1007.05
2017-03-17T13:44:05.729Z,1007.09
2017-03-17T13:45:05.761Z,1007.09
2017-03-17T13:46:05.811Z,1007.07
2017-03-17T13:47:05.822Z,1007.08
2017-03-17T13:48:05.859Z,1007.03
2017-03-17T13:49:05.888Z,1007.1
2017-03-17T13:50:05.923Z,1007.05
2017-03-17T13:51:05.952Z,1007.06
2017-03-17T13:52:05.986Z,1007.02
2017-03-17T13:53:06.015Z,1007.11
2017-03-17T13:54:06.075Z,1007.17
2017-03-17T13:55:06.082Z,1007.21
2017-03-17T13:56:06.113Z,1007.13
2017-03-17T13:57:06.147Z,1007.15
2017-03-17T13:58:06.177Z,1007.15
2017-03-17T13:59:06.207Z,1007.14
2017-03-17T14:00:06.238Z,1007.15
2017-03-17T14:01:06.269Z,1007.19
2017-03-17T14:02:06.287Z,1007.23
2017-03-17T14:03:06.331Z,1007.16
2017-03-17T14:04:06.364Z,1007.18
2017-03-17T14:05:06.395Z,1007.19
2017-03-17T14:06:06.427Z,1007.15
2017-03-17T14:07:06.460Z,1007.24
2017-03-17T14:08:06.490Z,1007.24
2017-03-17T14:09:06.524Z,1007.3
2017-03-17T14:10:06.554Z,1007.22
2017-03-17T14:11:06.585Z,1007.27
2017-03-17T14:12:06.617Z,1007.25
2017-03-17T14:13:06.647Z,1007.28
2017-03-17T14:14:06.682Z,1007.31
2017-03-17T14:15:06.714Z,1007.31
2017-03-17T14:16:06.728Z,1007.26
2017-03-17T14:17:06.771Z,1007.28
2017-03-17T14:18:06.806Z,1007.24
2017-03-17T14:19:06.828Z,1007.21
2017-03-17T14:20:06.856Z,1007.27
2017-03-17T14:21:06.900Z,1007.22
2017-03-17T14:22:06.932Z,1007.17
2017-03-17T14:23:06.963Z,1007.19
2017-03-17T14:24:06.994Z,1007.12
2017-03-17T14:25:07.026Z,1007.15
2017-03-17T14:26:07.058Z,1007.08
2017-03-17T14:27:07.088Z,1007.1
2017-03-17T14:28:07.118Z,1007.05
2017-03-17T14:29:07.153Z,1007.08
2017-03-17T14:30:07.180Z,1007.1
2017-03-17T14:31:07.214Z,1007.06
2017-03-17T14:32:07.246Z,1007.08
2017-03-17T14:33:07.277Z,1007.06
2017-03-17T14:34:07.304Z,1007.06
2017-03-17T14:35:07.326Z,1007.07
2017-03-17T14:36:07.368Z,1007.02
2017-03-17T14:37:07.400Z,1007.05
2017-03-17T14:38:07.434Z,1007.09
2017-03-17T14:39:07.463Z,1007.14
2017-03-17T14:40:07.497Z,1007.12
2017-03-17T14:41:07.526Z,1007.04
2017-03-17T14:42:07.547Z,1007.08
2017-03-17T14:43:07.586Z,1007.11
2017-03-17T14:44:07.621Z,1007.04
2017-03-17T14:45:07.649Z,1007.07
2017-03-17T14:46:07.680Z,1007.09
2017-03-17T14:47:07.711Z,1007.09
2017-03-17T14:48:07.745Z,1007.1
2017-03-17T14:49:07.776Z,1007.07
2017-03-17T14:50:07.807Z,1007
2017-03-17T14:51:07.838Z,1007.06
2017-03-17T14:52:07.856Z,1007.05
2017-03-17T14:53:07.899Z,1007.03
2017-03-17T14:54:07.934Z,1007.02
2017-03-17T14:55:07.956Z,1007.02
2017-03-17T14:56:07.994Z,1007.08
2017-03-17T14:57:08.026Z,1007.01
2017-03-17T14:58:08.056Z,1007.01
2017-03-17T14:59:08.090Z,1006.99
2017-03-17T15:00:08.123Z,1006.99
2017-03-17T15:01:08.166Z,1006.95
2017-03-17T15:02:08.194Z,1007.01
2017-03-17T15:03:08.214Z,1006.97
2017-03-17T15:04:08.246Z,1006.95
2017-03-17T15:05:08.275Z,1006.97
2017-03-17T15:06:08.308Z,1006.96
2017-03-17T15:07:08.338Z,1006.99
2017-03-17T15:08:08.366Z,1006.9
2017-03-17T15:09:08.401Z,1006.93
2017-03-17T15:10:08.429Z,1006.94
2017-03-17T15:11:08.460Z,1006.99
2017-03-17T15:12:08.485Z,1007.05
2017-03-17T15:13:08.523Z,1006.93
2017-03-17T15:14:08.554Z,1006.98
2017-03-17T15:15:08.588Z,1006.95
2017-03-17T15:16:08.614Z,1006.95
2017-03-17T15:17:08.649Z,1007.03
2017-03-17T15:18:08.679Z,1006.93
2017-03-17T15:19:08.713Z,1007
2017-03-17T15:20:08.742Z,1007.02
2017-03-17T15:21:08.775Z,1007.02
2017-03-17T15:22:08.795Z,1007.01
2017-03-17T15:23:08.833Z,1007.01
2017-03-17T15:24:08.867Z,1007.03
2017-03-17T15:25:08.892Z,1007.04
2017-03-17T15:26:09.278Z,1007.05
2017-03-17T15:27:08.959Z,1007.13
2017-03-17T15:28:08.992Z,1007.1
2017-03-17T15:29:09.019Z,1007.05
2017-03-17T15:30:09.049Z,1007.12
2017-03-17T15:31:09.081Z,1007.08
2017-03-17T15:32:09.112Z,1007.12
2017-03-17T15:33:09.142Z,1007.1
2017-03-17T15:34:09.174Z,1007.1
2017-03-17T15:35:09.204Z,1007.13
2017-03-17T15:36:09.233Z,1007.12
2017-03-17T15:37:09.263Z,1007.06
2017-03-17T15:38:09.294Z,1007.16
2017-03-17T15:39:09.325Z,1007.1
2017-03-17T15:40:09.358Z,1007.12
2017-03-17T15:41:09.386Z,1007.16
2017-03-17T15:42:09.414Z,1007.13
2017-03-17T15:43:09.445Z,1007.17
2017-03-17T15:44:09.479Z,1007.19
2017-03-17T15:45:09.510Z,1007.12
2017-03-17T15:46:09.538Z,1007.11
2017-03-17T15:47:09.567Z,1007.12
2017-03-17T15:48:09.583Z,1007.09
2017-03-17T15:49:09.633Z,1007.07
2017-03-17T15:50:09.657Z,1007.06
2017-03-17T15:51:09.689Z,1007
2017-03-17T15:52:09.723Z,1007.04
2017-03-17T15:53:09.752Z,1006.99
2017-03-17T15:54:09.784Z,1007
2017-03-17T15:55:09.811Z,1006.98
2017-03-17T15:56:09.842Z,1006.95
2017-03-17T15:57:09.876Z,1006.99
2017-03-17T15:58:09.904Z,1006.96
2017-03-17T15:59:09.935Z,1006.93
2017-03-17T16:00:09.962Z,1006.96
2017-03-17T16:01:09.993Z,1006.96
2017-03-17T16:02:10.026Z,1006.88
2017-03-17T16:03:10.057Z,1006.89
2017-03-17T16:04:10.086Z,1006.94
2017-03-17T16:05:10.114Z,1006.88
2017-03-17T16:06:10.144Z,1006.87
2017-03-17T16:07:10.198Z,1006.94
2017-03-17T16:08:10.207Z,1006.92
2017-03-17T16:09:10.236Z,1006.91
2017-03-17T16:10:10.263Z,1006.98
2017-03-17T16:11:10.293Z,1006.89
2017-03-17T16:12:10.326Z,1006.93
2017-03-17T16:13:10.356Z,1006.92
2017-03-17T16:14:10.387Z,1006.89
2017-03-17T16:15:10.414Z,1006.94
2017-03-17T16:16:10.444Z,1006.92
2017-03-17T16:17:10.476Z,1006.91
2017-03-17T16:18:10.505Z,1006.91
2017-03-17T16:19:10.536Z,1006.9
2017-03-17T16:20:10.563Z,1006.91
2017-03-17T16:21:10.586Z,1006.87
2017-03-17T16:22:10.625Z,1006.85
2017-03-17T16:23:10.654Z,1006.8
2017-03-17T16:24:10.685Z,1006.82
2017-03-17T16:25:10.711Z,1006.73
2017-03-17T16:26:10.743Z,1006.77
2017-03-17T16:27:10.773Z,1006.75
2017-03-17T16:28:10.801Z,1006.72
2017-03-17T16:29:10.837Z,1006.72
2017-03-17T16:30:10.963Z,1006.77
2017-03-17T16:31:10.889Z,1006.8
2017-03-17T16:32:10.927Z,1006.79
2017-03-17T16:33:10.956Z,1006.8
2017-03-17T16:34:10.985Z,1006.76
2017-03-17T16:35:11.011Z,1006.8
2017-03-17T16:36:11.043Z,1006.78
2017-03-17T16:37:11.076Z,1006.79
2017-03-17T16:38:11.100Z,1006.76
2017-03-17T16:39:11.127Z,1006.77
2017-03-17T16:40:11.160Z,1006.76
2017-03-17T16:41:11.187Z,1006.82
2017-03-17T16:42:11.217Z,1006.77
2017-03-17T16:43:11.450Z,1006.75
2017-03-17T16:44:11.279Z,1006.72
2017-03-17T16:45:11.457Z,1006.76
2017-03-17T16:46:11.336Z,1006.77
2017-03-17T16:47:11.371Z,1006.7
2017-03-17T16:48:11.382Z,1006.71
2017-03-17T16:49:11.424Z,1006.71
2017-03-17T16:50:11.454Z,1006.69
2017-03-17T16:51:11.475Z,1006.76
2017-03-17T16:52:11.515Z,1006.76
2017-03-17T16:53:11.545Z,1006.66
2017-03-17T16:54:11.571Z,1006.71
2017-03-17T16:55:11.604Z,1006.73
2017-03-17T16:56:11.632Z,1006.74
2017-03-17T16:57:11.664Z,1006.71
2017-03-17T16:58:11.694Z,1006.75
2017-03-17T16:59:11.723Z,1006.74
2017-03-17T17:00:11.750Z,1006.74
2017-03-17T17:01:11.779Z,1006.71
2017-03-17T17:02:11.804Z,1006.72
2017-03-17T17:03:11.842Z,1006.72
2017-03-17T17:04:11.871Z,1006.67
2017-03-17T17:05:11.899Z,1006.69
2017-03-17T17:06:11.923Z,1006.76
2017-03-17T17:07:11.957Z,1006.8
2017-03-17T17:08:11.986Z,1006.7
2017-03-17T17:09:12.016Z,1006.8
2017-03-17T17:10:12.046Z,1006.75
2017-03-17T17:11:12.072Z,1006.8
2017-03-17T17:12:12.101Z,1006.79
2017-03-17T17:13:12.132Z,1006.75
2017-03-17T17:14:12.162Z,1006.77
